sensor_id;sensor_type;location;lat;lon;timestamp;pressure;altitude;pressure_sealevel;temperature;humidity
36788;BME280;22738;45.560;9.434;2023-02-17T00:04:48;101156.47;;;7.81;100.00
36788;BME280;22738;45.560;9.434;2023-02-17T00:11:29;101152.75;;;7.62;100.00
36788;BME280;22738;45.560;9.434;2023-02-17T00:18:11;101142.66;;;7.54;100.00
36788;BME280;22738;45.560;9.434;2023-02-17T00:24:52;101139.94;;;7.59;100.00
36788;BME280;22738;45.560;9.434;2023-02-17T00:31:33;101143.44;;;7.58;100.00
36788;BME280;22738;45.560;9.434;2023-02-17T00:38:14;101148.72;;;7.53;100.00
36788;BME280;22738;45.560;9.434;2023-02-17T00:44:55;101149.38;;;7.60;100.00
36788;BME280;22738;45.560;9.434;2023-02-17T00:51:36;101154.50;;;7.61;100.00
36788;BME280;22738;45.560;9.434;2023-02-17T00:58:19;101153.84;;;7.55;100.00
36788;BME280;22738;45.560;9.434;2023-02-17T01:05:01;101158.97;;;7.56;100.00
36788;BME280;22738;45.560;9.434;2023-02-17T01:11:43;101165.59;;;7.63;100.00
36788;BME280;22738;45.560;9.434;2023-02-17T01:18:24;101145.09;;;7.59;100.00
36788;BME280;22738;45.560;9.434;2023-02-17T01:25:05;101146.94;;;7.55;100.00
36788;BME280;22738;45.560;9.434;2023-02-17T01:31:47;101142.63;;;7.56;100.00
36788;BME280;22738;45.560;9.434;2023-02-17T01:38:29;101136.56;;;7.57;100.00
36788;BME280;22738;45.560;9.434;2023-02-17T01:52:08;101139.72;;;7.66;100.00
36788;BME280;22738;45.560;9.434;2023-02-17T01:58:54;101136.75;;;7.78;100.00
36788;BME280;22738;45.560;9.434;2023-02-17T02:05:38;101132.16;;;7.88;100.00
36788;BME280;22738;45.560;9.434;2023-02-17T02:12:26;101127.38;;;7.76;100.00
36788;BME280;22738;45.560;9.434;2023-02-17T02:26:22;101129.09;;;7.48;100.00
36788;BME280;22738;45.560;9.434;2023-02-17T02:33:25;101126.16;;;7.32;100.00
36788;BME280;22738;45.560;9.434;2023-02-17T02:40:12;101115.16;;;7.26;100.00
36788;BME280;22738;45.560;9.434;2023-02-17T02:46:57;101120.41;;;7.22;100.00
36788;BME280;22738;45.560;9.434;2023-02-17T02:54:02;101106.34;;;7.05;100.00
36788;BME280;22738;45.560;9.434;2023-02-17T03:00:55;101106.47;;;7.00;100.00
36788;BME280;22738;45.560;9.434;2023-02-17T03:07:53;101108.03;;;7.06;100.00
36788;BME280;22738;45.560;9.434;2023-02-17T03:14:37;101107.91;;;7.10;100.00
36788;BME280;22738;45.560;9.434;2023-02-17T03:21:18;101117.56;;;7.02;100.00
36788;BME280;22738;45.560;9.434;2023-02-17T03:27:59;101103.66;;;6.79;100.00
36788;BME280;22738;45.560;9.434;2023-02-17T03:34:40;101114.72;;;6.82;100.00
36788;BME280;22738;45.560;9.434;2023-02-17T03:41:22;101106.75;;;6.59;100.00
36788;BME280;22738;45.560;9.434;2023-02-17T03:48:03;101114.66;;;6.21;100.00
36788;BME280;22738;45.560;9.434;2023-02-17T03:54:44;101106.19;;;6.16;100.00
36788;BME280;22738;45.560;9.434;2023-02-17T04:01:25;101106.66;;;5.98;100.00
36788;BME280;22738;45.560;9.434;2023-02-17T04:08:06;101117.56;;;5.70;100.00
36788;BME280;22738;45.560;9.434;2023-02-17T04:14:47;101130.91;;;5.51;100.00
36788;BME280;22738;45.560;9.434;2023-02-17T04:21:28;101119.06;;;5.44;100.00
36788;BME280;22738;45.560;9.434;2023-02-17T04:28:10;101136.03;;;5.51;100.00
36788;BME280;22738;45.560;9.434;2023-02-17T04:34:51;101136.75;;;5.57;100.00
36788;BME280;22738;45.560;9.434;2023-02-17T04:41:32;101138.44;;;5.58;100.00
36788;BME280;22738;45.560;9.434;2023-02-17T04:48:13;101141.22;;;5.49;100.00
36788;BME280;22738;45.560;9.434;2023-02-17T04:54:54;101133.06;;;5.31;100.00
36788;BME280;22738;45.560;9.434;2023-02-17T05:01:35;101133.72;;;4.99;100.00
36788;BME280;22738;45.560;9.434;2023-02-17T05:08:16;101142.56;;;4.86;100.00
36788;BME280;22738;45.560;9.434;2023-02-17T05:14:57;101150.34;;;4.81;100.00
36788;BME280;22738;45.560;9.434;2023-02-17T05:21:38;101157.72;;;4.54;100.00
36788;BME280;22738;45.560;9.434;2023-02-17T05:28:19;101156.19;;;4.44;100.00
36788;BME280;22738;45.560;9.434;2023-02-17T05:35:01;101163.78;;;4.50;100.00
36788;BME280;22738;45.560;9.434;2023-02-17T05:41:42;101155.84;;;4.62;100.00
36788;BME280;22738;45.560;9.434;2023-02-17T05:48:23;101168.84;;;4.54;100.00
36788;BME280;22738;45.560;9.434;2023-02-17T05:55:04;101171.50;;;4.50;100.00
36788;BME280;22738;45.560;9.434;2023-02-17T06:01:45;101163.53;;;4.14;100.00
36788;BME280;22738;45.560;9.434;2023-02-17T06:08:27;101167.94;;;4.06;100.00
36788;BME280;22738;45.560;9.434;2023-02-17T06:15:08;101166.06;;;4.16;100.00
36788;BME280;22738;45.560;9.434;2023-02-17T06:21:49;101169.41;;;4.22;100.00
36788;BME280;22738;45.560;9.434;2023-02-17T06:28:30;101179.59;;;4.27;100.00
36788;BME280;22738;45.560;9.434;2023-02-17T06:35:13;101186.44;;;4.25;100.00
36788;BME280;22738;45.560;9.434;2023-02-17T06:41:55;101186.34;;;4.31;100.00
36788;BME280;22738;45.560;9.434;2023-02-17T06:48:36;101197.00;;;4.59;100.00
36788;BME280;22738;45.560;9.434;2023-02-17T06:55:17;101202.28;;;4.50;100.00
36788;BME280;22738;45.560;9.434;2023-02-17T07:01:58;101219.00;;;4.72;100.00
36788;BME280;22738;45.560;9.434;2023-02-17T07:08:39;101226.81;;;5.13;100.00
36788;BME280;22738;45.560;9.434;2023-02-17T07:15:20;101225.59;;;5.70;100.00
36788;BME280;22738;45.560;9.434;2023-02-17T07:22:01;101218.75;;;6.09;100.00
36788;BME280;22738;45.560;9.434;2023-02-17T07:28:42;101229.41;;;6.65;100.00
36788;BME280;22738;45.560;9.434;2023-02-17T07:35:24;101236.31;;;6.96;100.00
36788;BME280;22738;45.560;9.434;2023-02-17T07:42:05;101231.16;;;7.58;100.00
36788;BME280;22738;45.560;9.434;2023-02-17T07:48:47;101231.97;;;8.94;100.00
36788;BME280;22738;45.560;9.434;2023-02-17T07:55:28;101236.41;;;12.74;100.00
36788;BME280;22738;45.560;9.434;2023-02-17T08:02:10;101244.28;;;14.19;100.00
36788;BME280;22738;45.560;9.434;2023-02-17T08:08:55;101245.47;;;14.59;100.00
36788;BME280;22738;45.560;9.434;2023-02-17T08:15:57;101243.59;;;13.69;100.00
36788;BME280;22738;45.560;9.434;2023-02-17T08:22:39;101242.25;;;13.93;100.00
36788;BME280;22738;45.560;9.434;2023-02-17T08:29:20;101262.22;;;16.65;100.00
36788;BME280;22738;45.560;9.434;2023-02-17T08:36:05;101269.31;;;18.02;100.00
36788;BME280;22738;45.560;9.434;2023-02-17T08:42:47;101261.00;;;18.31;100.00
36788;BME280;22738;45.560;9.434;2023-02-17T08:49:28;101263.72;;;19.23;89.90
36788;BME280;22738;45.560;9.434;2023-02-17T08:56:11;101254.41;;;19.19;100.00
36788;BME280;22738;45.560;9.434;2023-02-17T09:02:54;101274.91;;;18.57;99.96
36788;BME280;22738;45.560;9.434;2023-02-17T09:09:37;101262.94;;;17.19;100.00
36788;BME280;22738;45.560;9.434;2023-02-17T09:16:20;101270.19;;;16.10;100.00
36788;BME280;22738;45.560;9.434;2023-02-17T09:23:04;101261.91;;;15.90;100.00
36788;BME280;22738;45.560;9.434;2023-02-17T09:29:45;101255.19;;;15.86;100.00
36788;BME280;22738;45.560;9.434;2023-02-17T09:36:30;101260.53;;;16.11;100.00
36788;BME280;22738;45.560;9.434;2023-02-17T09:43:17;101265.28;;;15.78;100.00
36788;BME280;22738;45.560;9.434;2023-02-17T09:50:09;101265.03;;;16.09;100.00
36788;BME280;22738;45.560;9.434;2023-02-17T09:56:52;101261.16;;;16.55;100.00
36788;BME280;22738;45.560;9.434;2023-02-17T10:03:42;101268.94;;;16.16;100.00
36788;BME280;22738;45.560;9.434;2023-02-17T10:10:39;101268.63;;;16.47;100.00
36788;BME280;22738;45.560;9.434;2023-02-17T10:24:10;101267.03;;;16.59;100.00
36788;BME280;22738;45.560;9.434;2023-02-17T10:38:02;101266.94;;;15.93;100.00
36788;BME280;22738;45.560;9.434;2023-02-17T10:44:47;101255.09;;;16.40;100.00
36788;BME280;22738;45.560;9.434;2023-02-17T10:51:29;101249.56;;;16.45;100.00
36788;BME280;22738;45.560;9.434;2023-02-17T10:58:31;101242.88;;;16.41;100.00
36788;BME280;22738;45.560;9.434;2023-02-17T11:12:12;101218.22;;;16.31;100.00
36788;BME280;22738;45.560;9.434;2023-02-17T11:18:54;101210.06;;;16.35;100.00
36788;BME280;22738;45.560;9.434;2023-02-17T11:25:36;101196.78;;;16.26;100.00
36788;BME280;22738;45.560;9.434;2023-02-17T11:32:17;101180.72;;;16.18;100.00
36788;BME280;22738;45.560;9.434;2023-02-17T11:39:15;101176.00;;;16.10;100.00
36788;BME280;22738;45.560;9.434;2023-02-17T11:53:36;101144.03;;;16.32;100.00
36788;BME280;22738;45.560;9.434;2023-02-17T12:00:45;101137.28;;;16.15;100.00
36788;BME280;22738;45.560;9.434;2023-02-17T12:35:31;101101.72;;;16.38;100.00
36788;BME280;22738;45.560;9.434;2023-02-17T12:49:13;101075.81;;;15.56;100.00
36788;BME280;22738;45.560;9.434;2023-02-17T12:55:58;101075.13;;;15.67;100.00
36788;BME280;22738;45.560;9.434;2023-02-17T13:02:41;101070.22;;;15.62;100.00
36788;BME280;22738;45.560;9.434;2023-02-17T13:09:48;101067.91;;;15.70;100.00
36788;BME280;22738;45.560;9.434;2023-02-17T13:16:41;101062.75;;;15.96;100.00
36788;BME280;22738;45.560;9.434;2023-02-17T13:36:59;101041.03;;;16.33;100.00
36788;BME280;22738;45.560;9.434;2023-02-17T13:43:43;101034.53;;;16.26;100.00
36788;BME280;22738;45.560;9.434;2023-02-17T13:57:33;101021.34;;;16.15;100.00
36788;BME280;22738;45.560;9.434;2023-02-17T14:04:28;101018.28;;;15.96;100.00
36788;BME280;22738;45.560;9.434;2023-02-17T14:11:19;101002.50;;;15.97;100.00
36788;BME280;22738;45.560;9.434;2023-02-17T14:18:14;100994.34;;;15.89;100.00
36788;BME280;22738;45.560;9.434;2023-02-17T14:31:46;101000.81;;;15.84;100.00
36788;BME280;22738;45.560;9.434;2023-02-17T14:38:35;100996.19;;;15.75;100.00
36788;BME280;22738;45.560;9.434;2023-02-17T14:45:17;101002.25;;;15.62;100.00
36788;BME280;22738;45.560;9.434;2023-02-17T14:52:16;100998.06;;;15.60;100.00
36788;BME280;22738;45.560;9.434;2023-02-17T14:58:58;100978.63;;;15.37;100.00
36788;BME280;22738;45.560;9.434;2023-02-17T15:05:39;100985.81;;;15.34;100.00
36788;BME280;22738;45.560;9.434;2023-02-17T15:12:21;100979.53;;;15.36;100.00
36788;BME280;22738;45.560;9.434;2023-02-17T15:19:03;100976.25;;;15.20;100.00
36788;BME280;22738;45.560;9.434;2023-02-17T15:25:44;100965.66;;;15.09;100.00
36788;BME280;22738;45.560;9.434;2023-02-17T15:32:26;100967.44;;;15.09;100.00
36788;BME280;22738;45.560;9.434;2023-02-17T15:39:11;100961.16;;;15.11;100.00
36788;BME280;22738;45.560;9.434;2023-02-17T15:45:53;100962.72;;;15.01;100.00
36788;BME280;22738;45.560;9.434;2023-02-17T15:52:34;100961.50;;;14.92;100.00
36788;BME280;22738;45.560;9.434;2023-02-17T15:59:18;100973.66;;;14.79;100.00
36788;BME280;22738;45.560;9.434;2023-02-17T16:06:00;100965.78;;;14.67;100.00
36788;BME280;22738;45.560;9.434;2023-02-17T16:12:43;100972.03;;;14.50;100.00
36788;BME280;22738;45.560;9.434;2023-02-17T16:19:25;100971.31;;;14.34;100.00
36788;BME280;22738;45.560;9.434;2023-02-17T16:26:25;100968.41;;;14.10;100.00
36788;BME280;22738;45.560;9.434;2023-02-17T16:33:09;100972.16;;;13.91;100.00
36788;BME280;22738;45.560;9.434;2023-02-17T16:39:50;100982.19;;;13.69;100.00
36788;BME280;22738;45.560;9.434;2023-02-17T16:46:33;100985.75;;;13.52;100.00
36788;BME280;22738;45.560;9.434;2023-02-17T16:53:17;100985.81;;;13.21;100.00
36788;BME280;22738;45.560;9.434;2023-02-17T16:59:58;101002.53;;;12.85;100.00
36788;BME280;22738;45.560;9.434;2023-02-17T17:06:46;101007.41;;;12.43;100.00
36788;BME280;22738;45.560;9.434;2023-02-17T17:13:28;101013.50;;;12.09;100.00
36788;BME280;22738;45.560;9.434;2023-02-17T17:20:15;101019.09;;;12.02;100.00
36788;BME280;22738;45.560;9.434;2023-02-17T17:26:58;101031.72;;;11.92;100.00
36788;BME280;22738;45.560;9.434;2023-02-17T17:33:39;101038.75;;;11.90;100.00
36788;BME280;22738;45.560;9.434;2023-02-17T17:40:30;101034.69;;;11.85;100.00
36788;BME280;22738;45.560;9.434;2023-02-17T17:47:18;101038.97;;;11.69;100.00
36788;BME280;22738;45.560;9.434;2023-02-17T17:54:00;101040.56;;;11.35;100.00
36788;BME280;22738;45.560;9.434;2023-02-17T18:00:43;101049.03;;;11.03;100.00
36788;BME280;22738;45.560;9.434;2023-02-17T18:07:24;101060.91;;;10.70;100.00
36788;BME280;22738;45.560;9.434;2023-02-17T18:14:08;101067.22;;;10.64;100.00
36788;BME280;22738;45.560;9.434;2023-02-17T18:20:50;101071.56;;;10.64;100.00
36788;BME280;22738;45.560;9.434;2023-02-17T18:27:43;101067.78;;;10.71;100.00
36788;BME280;22738;45.560;9.434;2023-02-17T18:34:25;101076.44;;;10.90;100.00
36788;BME280;22738;45.560;9.434;2023-02-17T18:41:07;101076.22;;;11.13;100.00
36788;BME280;22738;45.560;9.434;2023-02-17T18:47:48;101091.53;;;11.19;100.00
36788;BME280;22738;45.560;9.434;2023-02-17T18:54:29;101100.28;;;11.17;100.00
36788;BME280;22738;45.560;9.434;2023-02-17T19:01:18;101097.94;;;11.11;100.00
36788;BME280;22738;45.560;9.434;2023-02-17T19:07:59;101114.53;;;11.08;100.00
36788;BME280;22738;45.560;9.434;2023-02-17T19:14:41;101119.56;;;10.72;100.00
36788;BME280;22738;45.560;9.434;2023-02-17T19:21:22;101122.38;;;10.48;100.00
36788;BME280;22738;45.560;9.434;2023-02-17T19:28:03;101118.91;;;10.29;100.00
36788;BME280;22738;45.560;9.434;2023-02-17T19:34:45;101131.63;;;9.91;100.00
36788;BME280;22738;45.560;9.434;2023-02-17T19:41:26;101128.38;;;9.86;100.00
36788;BME280;22738;45.560;9.434;2023-02-17T19:48:08;101141.28;;;9.66;100.00
36788;BME280;22738;45.560;9.434;2023-02-17T19:54:49;101141.50;;;9.39;100.00
36788;BME280;22738;45.560;9.434;2023-02-17T20:01:31;101142.69;;;9.30;100.00
36788;BME280;22738;45.560;9.434;2023-02-17T20:08:13;101143.72;;;9.03;100.00
36788;BME280;22738;45.560;9.434;2023-02-17T20:14:54;101140.56;;;8.70;100.00
36788;BME280;22738;45.560;9.434;2023-02-17T20:21:36;101148.38;;;8.93;100.00
36788;BME280;22738;45.560;9.434;2023-02-17T20:28:19;101151.22;;;9.09;100.00
36788;BME280;22738;45.560;9.434;2023-02-17T20:35:00;101159.28;;;9.24;100.00
36788;BME280;22738;45.560;9.434;2023-02-17T20:41:41;101170.19;;;9.56;100.00
36788;BME280;22738;45.560;9.434;2023-02-17T20:48:22;101161.66;;;9.52;100.00
36788;BME280;22738;45.560;9.434;2023-02-17T20:55:07;101152.59;;;9.64;100.00
36788;BME280;22738;45.560;9.434;2023-02-17T21:01:48;101152.78;;;9.81;100.00
36788;BME280;22738;45.560;9.434;2023-02-17T21:08:29;101156.44;;;9.75;100.00
36788;BME280;22738;45.560;9.434;2023-02-17T21:15:10;101155.78;;;9.70;100.00
36788;BME280;22738;45.560;9.434;2023-02-17T21:21:52;101163.94;;;9.83;100.00
36788;BME280;22738;45.560;9.434;2023-02-17T21:28:33;101166.56;;;9.81;100.00
36788;BME280;22738;45.560;9.434;2023-02-17T21:35:14;101163.34;;;9.76;100.00
36788;BME280;22738;45.560;9.434;2023-02-17T21:41:55;101158.44;;;9.69;100.00
36788;BME280;22738;45.560;9.434;2023-02-17T21:48:36;101154.50;;;9.59;100.00
36788;BME280;22738;45.560;9.434;2023-02-17T21:55:18;101147.28;;;9.45;100.00
36788;BME280;22738;45.560;9.434;2023-02-17T22:01:59;101143.44;;;9.33;100.00
36788;BME280;22738;45.560;9.434;2023-02-17T22:08:40;101155.91;;;9.22;100.00
36788;BME280;22738;45.560;9.434;2023-02-17T22:15:21;101156.13;;;9.16;100.00
36788;BME280;22738;45.560;9.434;2023-02-17T22:22:02;101162.44;;;9.09;100.00
36788;BME280;22738;45.560;9.434;2023-02-17T22:28:44;101149.50;;;9.09;100.00
36788;BME280;22738;45.560;9.434;2023-02-17T22:35:25;101143.81;;;9.23;100.00
36788;BME280;22738;45.560;9.434;2023-02-17T22:42:06;101144.25;;;9.11;100.00
36788;BME280;22738;45.560;9.434;2023-02-17T22:48:49;101144.09;;;9.15;100.00
36788;BME280;22738;45.560;9.434;2023-02-17T22:55:30;101136.97;;;8.99;100.00
36788;BME280;22738;45.560;9.434;2023-02-17T23:02:11;101137.81;;;8.75;100.00
36788;BME280;22738;45.560;9.434;2023-02-17T23:08:53;101136.47;;;8.65;100.00
36788;BME280;22738;45.560;9.434;2023-02-17T23:15:38;101143.31;;;8.66;100.00
36788;BME280;22738;45.560;9.434;2023-02-17T23:22:19;101140.69;;;8.67;100.00
36788;BME280;22738;45.560;9.434;2023-02-17T23:29:00;101134.16;;;8.57;100.00
36788;BME280;22738;45.560;9.434;2023-02-17T23:35:42;101134.44;;;8.49;100.00
36788;BME280;22738;45.560;9.434;2023-02-17T23:42:27;101125.09;;;8.45;100.00
36788;BME280;22738;45.560;9.434;2023-02-17T23:49:12;101130.78;;;8.30;100.00
36788;BME280;22738;45.560;9.434;2023-02-17T23:56:03;101125.88;;;8.21;100.00
